createdAt,value
2019-05-14T00:01:46.014Z,100.00
2019-05-14T00:04:17.467Z,100.00
2019-05-14T00:06:48.834Z,100.00
2019-05-14T00:09:21.543Z,100.00
2019-05-14T00:11:53.517Z,100.00
2019-05-14T00:14:36.532Z,100.00
2019-05-14T00:16:58.270Z,100.00
2019-05-14T00:19:32.529Z,100.00
2019-05-14T00:22:06.764Z,100.00
2019-05-14T00:24:41.879Z,100.00
2019-05-14T00:27:12.607Z,100.00
2019-05-14T00:29:43.988Z,100.00
2019-05-14T00:32:18.129Z,100.00
2019-05-14T00:34:51.584Z,100.00
2019-05-14T00:37:23.388Z,100.00
2019-05-14T00:39:54.665Z,100.00
2019-05-14T00:42:26.183Z,100.00
2019-05-14T00:44:58.038Z,100.00
2019-05-14T00:47:31.276Z,100.00
2019-05-14T00:50:02.448Z,100.00
2019-05-14T00:52:34.110Z,100.00
2019-05-14T00:55:05.850Z,100.00
2019-05-14T00:57:37.313Z,100.00
2019-05-14T01:00:08.777Z,100.00
2019-05-14T01:02:41.575Z,100.00
2019-05-14T01:05:13.623Z,100.00
2019-05-14T01:07:44.893Z,100.00
2019-05-14T01:10:16.788Z,100.00
2019-05-14T01:12:47.949Z,100.00
2019-05-14T01:15:21.503Z,100.00
2019-05-14T01:17:52.190Z,100.00
2019-05-14T01:20:24.177Z,100.00
2019-05-14T01:22:55.770Z,100.00
2019-05-14T01:25:27.098Z,100.00
2019-05-14T01:27:58.403Z,100.00
2019-05-14T01:30:31.734Z,100.00
2019-05-14T01:33:03.679Z,100.00
2019-05-14T01:35:35.096Z,100.00
2019-05-14T01:38:06.517Z,100.00
2019-05-14T01:40:37.743Z,100.00
2019-05-14T01:43:11.413Z,100.00
2019-05-14T01:45:44.604Z,100.00
2019-05-14T01:48:15.889Z,100.00
2019-05-14T01:50:47.354Z,100.00
2019-05-14T01:53:19.346Z,100.00
2019-05-14T01:55:54.044Z,100.00
2019-05-14T01:58:25.235Z,100.00
2019-05-14T02:00:56.430Z,100.00
2019-05-14T02:03:27.789Z,100.00
2019-05-14T02:06:01.205Z,100.00
2019-05-14T02:08:32.502Z,100.00
2019-05-14T02:11:03.636Z,100.00
2019-05-14T02:13:34.951Z,100.00
2019-05-14T02:16:08.602Z,100.00
2019-05-14T02:18:41.590Z,100.00
2019-05-14T02:21:12.960Z,100.00
2019-05-14T02:23:44.144Z,100.00
2019-05-14T02:26:15.454Z,100.00
2019-05-14T02:28:46.648Z,100.00
2019-05-14T02:31:20.604Z,100.00
2019-05-14T02:33:52.018Z,100.00
2019-05-14T02:36:23.192Z,100.00
2019-05-14T02:38:54.373Z,100.00
2019-05-14T02:41:25.643Z,100.00
2019-05-14T02:43:59.408Z,100.00
2019-05-14T02:46:29.886Z,100.00
2019-05-14T02:49:01.162Z,100.00
2019-05-14T02:51:33.471Z,100.00
2019-05-14T02:54:04.720Z,100.00
2019-05-14T02:56:35.995Z,100.00
2019-05-14T02:59:09.722Z,100.00
2019-05-14T03:01:40.983Z,100.00
2019-05-14T03:04:12.240Z,100.00
2019-05-14T03:06:43.463Z,100.00
2019-05-14T03:09:14.679Z,100.00
2019-05-14T03:11:48.498Z,100.00
2019-05-14T03:14:19.759Z,100.00
2019-05-14T03:16:51.143Z,100.00
2019-05-14T03:19:22.563Z,100.00
2019-05-14T03:21:53.764Z,100.00
2019-05-14T03:24:25.143Z,100.00
2019-05-14T03:26:58.709Z,100.00
2019-05-14T03:29:30.923Z,100.00
2019-05-14T03:32:03.732Z,100.00
2019-05-14T03:34:35.231Z,100.00
2019-05-14T03:37:13.236Z,100.00
2019-05-14T03:39:40.406Z,100.00
2019-05-14T03:42:12.001Z,100.00
2019-05-14T03:44:43.199Z,100.00
2019-05-14T03:47:14.622Z,100.00
2019-05-14T03:49:45.861Z,100.00
2019-05-14T03:52:19.798Z,100.00
2019-05-14T03:54:50.257Z,100.00
2019-05-14T03:57:22.036Z,100.00
2019-05-14T03:59:53.401Z,100.00
2019-05-14T04:02:24.804Z,100.00
2019-05-14T04:04:59.761Z,100.00
2019-05-14T04:07:31.021Z,100.00
2019-05-14T04:10:03.540Z,100.00
2019-05-14T04:12:40.183Z,100.00
2019-05-14T04:15:10.226Z,100.00
2019-05-14T04:17:43.440Z,100.00
2019-05-14T04:20:15.300Z,100.00
2019-05-14T04:22:50.368Z,100.00
2019-05-14T04:25:21.702Z,100.00
2019-05-14T04:27:54.504Z,100.00
2019-05-14T04:33:19.367Z,100.00
2019-05-14T04:35:50.680Z,100.00
2019-05-14T04:38:22.000Z,100.00
2019-05-14T04:40:53.445Z,100.00
2019-05-14T04:43:25.221Z,100.00
2019-05-14T04:45:59.136Z,100.00
2019-05-14T04:48:37.267Z,100.00
2019-05-14T04:51:03.472Z,100.00
2019-05-14T04:53:35.002Z,100.00
2019-05-14T04:56:08.788Z,100.00
2019-05-14T04:58:41.081Z,100.00
2019-05-14T05:01:12.477Z,100.00
2019-05-14T05:03:49.815Z,100.00
2019-05-14T05:06:19.623Z,100.00
2019-05-14T05:08:51.127Z,100.00
2019-05-14T05:11:22.429Z,100.00
2019-05-14T05:13:53.677Z,100.00
2019-05-14T05:16:25.152Z,100.00
2019-05-14T05:18:59.185Z,100.00
2019-05-14T05:21:29.282Z,100.00
2019-05-14T05:24:00.552Z,100.00
2019-05-14T05:26:31.732Z,100.00
2019-05-14T05:29:06.904Z,100.00
2019-05-14T05:31:38.144Z,100.00
2019-05-14T05:34:09.099Z,100.00
2019-05-14T05:36:40.317Z,100.00
2019-05-14T05:39:11.609Z,100.00
2019-05-14T05:41:43.688Z,100.00
2019-05-14T05:44:15.027Z,100.00
2019-05-14T05:46:46.307Z,100.00
2019-05-14T05:49:19.073Z,100.00
2019-05-14T05:51:50.635Z,100.00
2019-05-14T05:54:21.946Z,100.00
2019-05-14T05:56:53.239Z,100.00
2019-05-14T05:59:29.294Z,100.00
2019-05-14T06:02:01.637Z,100.00
2019-05-14T06:04:32.929Z,100.00
2019-05-14T06:07:04.240Z,100.00
2019-05-14T06:09:37.939Z,100.00
2019-05-14T06:12:08.925Z,100.00
2019-05-14T06:14:40.585Z,100.00
2019-05-14T06:17:11.968Z,100.00
2019-05-14T06:19:43.380Z,100.00
2019-05-14T06:22:14.684Z,100.00
2019-05-14T06:24:48.365Z,100.00
2019-05-14T06:27:34.838Z,100.00
2019-05-14T06:30:09.142Z,100.00
2019-05-14T06:32:40.779Z,100.00
2019-05-14T06:35:12.523Z,100.00
2019-05-14T06:37:44.147Z,100.00
2019-05-14T06:40:20.414Z,100.00
2019-05-14T06:42:51.708Z,100.00
2019-05-14T06:45:23.513Z,100.00
2019-05-14T06:47:54.828Z,100.00
2019-05-14T06:50:28.501Z,100.00
2019-05-14T06:52:59.283Z,100.00
2019-05-14T06:55:30.514Z,100.00
2019-05-14T06:58:01.817Z,100.00
2019-05-14T07:00:33.522Z,100.00
2019-05-14T07:03:04.927Z,100.00
2019-05-14T07:05:38.775Z,100.00
2019-05-14T07:08:11.280Z,100.00
2019-05-14T07:10:59.827Z,100.00
2019-05-14T07:13:31.245Z,100.00
2019-05-14T07:16:02.782Z,100.00
2019-05-14T07:18:48.625Z,100.00
2019-05-14T07:21:13.960Z,100.00
2019-05-14T07:23:49.023Z,100.00
2019-05-14T07:26:20.511Z,100.00
2019-05-14T07:28:52.078Z,100.00
2019-05-14T07:31:23.648Z,100.00
2019-05-14T07:33:54.889Z,100.00
2019-05-14T07:36:29.062Z,100.00
2019-05-14T07:39:00.298Z,100.00
2019-05-14T07:41:34.104Z,100.00
2019-05-14T07:44:06.398Z,100.00
2019-05-14T07:46:39.011Z,100.00
2019-05-14T07:49:13.410Z,100.00
2019-05-14T07:51:45.051Z,100.00
2019-05-14T07:54:16.366Z,100.00
2019-05-14T07:56:50.873Z,100.00
2019-05-14T07:59:21.260Z,100.00
2019-05-14T08:01:53.663Z,100.00
2019-05-14T08:04:24.991Z,100.00
2019-05-14T08:06:58.180Z,100.00
2019-05-14T08:09:29.864Z,100.00
2019-05-14T08:12:01.471Z,100.00
2019-05-14T08:14:42.576Z,100.00
2019-05-14T08:17:05.775Z,100.00
2019-05-14T08:19:38.601Z,100.00
2019-05-14T08:22:10.203Z,100.00
2019-05-14T08:24:41.440Z,100.00
2019-05-14T08:27:14.869Z,100.00
2019-05-14T08:29:48.440Z,100.00
2019-05-14T08:32:19.274Z,100.00
2019-05-14T08:34:51.625Z,100.00
2019-05-14T08:37:23.307Z,100.00
2019-05-14T08:39:59.502Z,100.00
2019-05-14T08:42:34.036Z,100.00
2019-05-14T08:45:04.775Z,100.00
2019-05-14T08:47:39.081Z,100.00
2019-05-14T08:50:10.688Z,100.00
2019-05-14T08:52:42.051Z,100.00
2019-05-14T08:55:14.273Z,100.00
2019-05-14T08:57:48.870Z,100.00
2019-05-14T09:00:20.802Z,100.00
2019-05-14T09:02:56.238Z,100.00
2019-05-14T09:05:31.848Z,100.00
2019-05-14T09:08:03.573Z,100.00
2019-05-14T09:10:34.928Z,100.00
2019-05-14T09:13:08.519Z,100.00
2019-05-14T09:15:39.702Z,100.00
2019-05-14T09:18:11.936Z,100.00
2019-05-14T09:20:43.345Z,100.00
2019-05-14T09:23:19.024Z,100.00
2019-05-14T09:25:53.496Z,100.00
2019-05-14T09:28:24.920Z,100.00
2019-05-14T09:30:59.582Z,100.00
2019-05-14T09:33:31.261Z,100.00
2019-05-14T09:36:14.810Z,100.00
2019-05-14T09:38:41.643Z,100.00
2019-05-14T09:41:14.926Z,100.00
2019-05-14T09:43:42.171Z,100.00
2019-05-14T09:46:13.511Z,100.00
2019-05-14T09:48:45.024Z,100.00
2019-05-14T09:51:18.429Z,100.00
2019-05-14T09:53:51.340Z,100.00
2019-05-14T09:56:24.148Z,100.00
2019-05-14T09:58:55.769Z,100.00
2019-05-14T10:01:27.327Z,100.00
2019-05-14T10:03:59.567Z,100.00
2019-05-14T10:06:31.474Z,100.00
2019-05-14T10:09:02.857Z,100.00
2019-05-14T10:11:34.794Z,100.00
2019-05-14T10:14:08.005Z,100.00
2019-05-14T10:16:39.441Z,100.00
2019-05-14T10:19:11.121Z,100.00
2019-05-14T10:21:44.420Z,100.00
2019-05-14T10:24:18.386Z,100.00
2019-05-14T10:26:49.182Z,99.58
2019-05-14T10:29:20.580Z,100.00
2019-05-14T10:31:51.857Z,100.00
2019-05-14T10:34:23.072Z,100.00
2019-05-14T10:36:54.413Z,100.00
2019-05-14T10:39:29.808Z,100.00
2019-05-14T10:41:59.127Z,100.00
2019-05-14T10:44:32.524Z,100.00
2019-05-14T10:47:04.025Z,100.00
2019-05-14T10:49:38.493Z,100.00
2019-05-14T10:52:10.240Z,100.00
2019-05-14T10:54:55.046Z,100.00
2019-05-14T10:57:14.622Z,99.11
2019-05-14T10:59:45.864Z,97.31
2019-05-14T11:02:18.569Z,98.32
2019-05-14T11:04:50.863Z,97.52
2019-05-14T11:07:23.418Z,98.21
2019-05-14T11:09:55.229Z,96.00
2019-05-14T11:12:26.439Z,98.19
2019-05-14T11:14:57.667Z,97.60
2019-05-14T11:17:29.391Z,96.27
2019-05-14T11:20:03.977Z,95.65
2019-05-14T11:22:35.357Z,97.45
2019-05-14T11:25:09.165Z,96.97
2019-05-14T11:27:40.286Z,97.08
2019-05-14T11:30:12.202Z,96.44
2019-05-14T11:32:43.385Z,96.24
2019-05-14T11:35:19.143Z,95.04
2019-05-14T11:37:50.646Z,94.65
2019-05-14T11:40:21.997Z,93.13
2019-05-14T11:42:54.100Z,95.01
2019-05-14T11:45:25.983Z,94.95
2019-05-14T11:47:58.347Z,96.33
2019-05-14T11:50:29.947Z,94.36
2019-05-14T11:53:01.224Z,93.82
2019-05-14T11:55:34.023Z,93.26
2019-05-14T11:58:05.529Z,94.20
2019-05-14T12:00:39.970Z,93.11
2019-05-14T12:03:13.032Z,93.62
2019-05-14T12:05:44.625Z,93.49
2019-05-14T12:08:18.378Z,92.94
2019-05-14T12:10:48.850Z,93.07
2019-05-14T12:13:20.501Z,91.76
2019-05-14T12:15:52.381Z,92.55
2019-05-14T12:18:23.848Z,92.41
2019-05-14T12:20:55.197Z,91.07
2019-05-14T12:23:26.626Z,90.55
2019-05-14T12:25:58.834Z,91.20
2019-05-14T12:28:31.549Z,90.84
2019-05-14T12:31:03.427Z,90.87
2019-05-14T12:33:39.282Z,91.03
2019-05-14T12:36:10.511Z,91.28
2019-05-14T12:38:42.322Z,91.04
2019-05-14T12:41:13.908Z,90.25
2019-05-14T12:43:45.093Z,89.69
2019-05-14T12:46:20.103Z,89.82
2019-05-14T12:48:49.800Z,89.47
2019-05-14T12:51:21.410Z,90.18
2019-05-14T12:53:52.594Z,89.41
2019-05-14T12:56:23.950Z,88.88
2019-05-14T12:58:58.129Z,89.30
2019-05-14T13:01:29.534Z,90.13
2019-05-14T13:04:01.265Z,89.18
2019-05-14T13:06:33.858Z,89.84
2019-05-14T13:09:05.901Z,88.48
2019-05-14T13:11:41.282Z,87.20
2019-05-14T13:14:10.874Z,87.68
2019-05-14T13:16:42.243Z,87.31
2019-05-14T13:19:13.673Z,87.02
2019-05-14T13:21:44.957Z,87.00
2019-05-14T13:24:18.129Z,87.24
2019-05-14T13:26:49.757Z,86.54
2019-05-14T13:29:22.581Z,85.62
2019-05-14T13:31:54.173Z,85.12
2019-05-14T13:34:28.722Z,85.17
2019-05-14T13:36:59.684Z,84.18
2019-05-14T13:39:31.442Z,84.26
2019-05-14T13:42:03.440Z,83.62
2019-05-14T13:44:36.141Z,83.66
2019-05-14T13:47:09.298Z,82.58
2019-05-14T13:49:40.614Z,81.56
2019-05-14T13:52:12.512Z,80.29
2019-05-14T13:54:44.476Z,81.06
2019-05-14T13:57:19.127Z,80.79
2019-05-14T13:59:49.443Z,80.84
2019-05-14T14:02:20.895Z,80.60
2019-05-14T14:04:52.147Z,79.49
2019-05-14T14:07:23.864Z,79.16
2019-05-14T14:09:55.960Z,78.34
2019-05-14T14:12:31.898Z,77.89
2019-05-14T14:15:00.321Z,77.80
2019-05-14T14:17:31.738Z,77.50
2019-05-14T14:20:04.336Z,77.64
2019-05-14T14:22:35.766Z,76.83
2019-05-14T14:25:08.950Z,74.99
2019-05-14T14:27:41.519Z,71.57
2019-05-14T14:30:13.292Z,72.95
2019-05-14T14:32:44.951Z,71.12
2019-05-14T14:35:23.643Z,71.13
2019-05-14T14:37:51.704Z,68.39
2019-05-14T14:40:23.419Z,66.75
2019-05-14T14:42:54.978Z,67.11
2019-05-14T14:45:29.218Z,64.27
2019-05-14T14:48:01.447Z,56.52
2019-05-14T14:50:32.651Z,52.54
2019-05-14T14:53:04.136Z,49.86
2019-05-14T14:55:35.423Z,48.44
2019-05-14T14:58:11.051Z,45.90
2019-05-14T15:00:41.785Z,43.97
2019-05-14T15:03:12.929Z,43.80
2019-05-14T15:05:49.786Z,41.79
2019-05-14T15:08:21.418Z,40.41
2019-05-14T15:10:55.717Z,40.94
2019-05-14T15:13:30.388Z,41.88
2019-05-14T15:16:01.763Z,40.94
2019-05-14T15:18:33.232Z,41.19
2019-05-14T15:21:05.094Z,42.38
2019-05-14T15:23:43.234Z,41.56
2019-05-14T15:26:12.543Z,40.50
2019-05-14T15:28:45.696Z,41.89
2019-05-14T15:31:19.133Z,41.31
2019-05-14T15:33:51.130Z,42.20
2019-05-14T15:36:23.721Z,42.97
2019-05-14T15:38:55.056Z,43.90
2019-05-14T15:41:29.445Z,42.76
2019-05-14T15:43:59.739Z,41.95
2019-05-14T15:46:31.109Z,42.28
2019-05-14T15:49:03.044Z,42.08
2019-05-14T15:51:34.516Z,41.14
2019-05-14T15:54:31.142Z,41.52
2019-05-14T15:56:39.750Z,39.57
2019-05-14T15:59:15.249Z,40.82
2019-05-14T16:01:46.586Z,41.01
2019-05-14T16:04:20.624Z,41.17
2019-05-14T16:06:50.668Z,41.99
2019-05-14T16:09:28.907Z,41.84
2019-05-14T16:11:59.900Z,40.45
2019-05-14T16:14:33.621Z,41.58
2019-05-14T16:17:04.931Z,43.14
2019-05-14T16:19:36.386Z,43.33
2019-05-14T16:22:09.919Z,44.10
2019-05-14T16:24:55.923Z,43.72
2019-05-14T16:27:14.348Z,43.80
2019-05-14T16:29:46.293Z,42.08
2019-05-14T16:32:18.778Z,43.86
2019-05-14T16:34:49.974Z,43.14
2019-05-14T16:37:21.375Z,43.47
2019-05-14T16:39:52.631Z,43.33
2019-05-14T16:42:24.539Z,42.25
2019-05-14T16:44:57.035Z,38.87
2019-05-14T16:47:28.740Z,37.93
2019-05-14T16:50:00.103Z,44.37
2019-05-14T16:52:31.460Z,43.64
2019-05-14T16:55:20.578Z,42.47
2019-05-14T16:57:38.769Z,42.66
2019-05-14T17:00:10.373Z,41.99
2019-05-14T17:02:41.699Z,43.24
2019-05-14T17:05:13.100Z,42.00
2019-05-14T17:07:44.417Z,42.04
2019-05-14T17:10:18.109Z,42.11
2019-05-14T17:12:56.635Z,42.27
2019-05-14T17:15:22.186Z,42.28
2019-05-14T17:17:53.758Z,42.64
2019-05-14T17:20:25.061Z,41.44
2019-05-14T17:22:56.334Z,42.11
2019-05-14T17:25:30.370Z,40.97
2019-05-14T17:28:01.239Z,41.47
2019-05-14T17:30:32.626Z,41.43
2019-05-14T17:33:04.071Z,42.71
2019-05-14T17:35:35.441Z,43.66
2019-05-14T17:38:09.063Z,43.56
2019-05-14T17:40:39.965Z,44.37
2019-05-14T17:43:11.234Z,45.08
2019-05-14T17:45:43.022Z,46.13
2019-05-14T17:48:15.329Z,47.03
2019-05-14T17:50:48.494Z,47.83
2019-05-14T17:53:19.951Z,46.46
2019-05-14T17:55:51.252Z,48.00
2019-05-14T17:58:22.533Z,48.66
2019-05-14T18:00:53.835Z,48.87
2019-05-14T18:03:28.842Z,49.88
2019-05-14T18:05:59.544Z,50.06
2019-05-14T18:08:30.826Z,48.93
2019-05-14T18:11:02.079Z,48.01
2019-05-14T18:13:33.464Z,48.04
2019-05-14T18:16:04.701Z,48.19
2019-05-14T18:18:35.968Z,47.74
2019-05-14T18:21:09.406Z,48.53
2019-05-14T18:23:42.028Z,46.99
2019-05-14T18:26:13.617Z,47.40
2019-05-14T18:28:44.952Z,48.07
2019-05-14T18:31:19.632Z,48.95
2019-05-14T18:33:49.515Z,49.71
2019-05-14T18:36:20.906Z,51.13
2019-05-14T18:38:52.231Z,52.39
2019-05-14T18:41:23.535Z,53.95
2019-05-14T18:43:54.793Z,56.11
2019-05-14T18:46:28.367Z,57.89
2019-05-14T18:48:59.395Z,59.39
2019-05-14T18:51:31.252Z,60.72
2019-05-14T18:54:03.022Z,61.36
2019-05-14T18:56:34.240Z,62.28
2019-05-14T18:59:05.586Z,63.12
2019-05-14T19:01:39.471Z,63.72
2019-05-14T19:04:09.858Z,64.72
2019-05-14T19:06:41.348Z,65.31
2019-05-14T19:09:13.267Z,65.65
2019-05-14T19:11:44.607Z,66.72
2019-05-14T19:14:18.520Z,67.62
2019-05-14T19:16:49.304Z,68.61
2019-05-14T19:19:20.867Z,69.85
2019-05-14T19:21:52.225Z,70.59
2019-05-14T19:24:23.778Z,71.41
2019-05-14T19:26:55.429Z,72.09
2019-05-14T19:29:28.174Z,72.30
2019-05-14T19:32:00.216Z,72.19
2019-05-14T19:34:31.527Z,72.20
2019-05-14T19:37:02.711Z,71.80
2019-05-14T19:39:34.029Z,71.70
2019-05-14T19:42:05.621Z,71.92
2019-05-14T19:44:37.336Z,72.20
2019-05-14T19:47:09.468Z,71.68
2019-05-14T19:49:40.810Z,72.61
2019-05-14T19:52:12.125Z,74.86
2019-05-14T19:54:43.465Z,75.83
2019-05-14T19:57:15.123Z,77.62
2019-05-14T19:59:46.413Z,76.98
2019-05-14T20:02:18.391Z,76.66
2019-05-14T20:04:49.797Z,76.69
2019-05-14T20:07:21.195Z,76.02
2019-05-14T20:09:54.752Z,76.58
2019-05-14T20:12:26.031Z,75.99
2019-05-14T20:14:58.366Z,76.21
2019-05-14T20:17:30.840Z,76.21
2019-05-14T20:20:04.210Z,75.65
2019-05-14T20:22:35.473Z,75.11
2019-05-14T20:25:06.985Z,74.56
2019-05-14T20:27:39.233Z,74.72
2019-05-14T20:30:12.746Z,75.01
2019-05-14T20:32:44.439Z,75.72
2019-05-14T20:35:29.923Z,77.97
2019-05-14T20:37:49.393Z,80.71
2019-05-14T20:40:21.514Z,83.10
2019-05-14T20:42:53.057Z,83.80
2019-05-14T20:45:24.630Z,84.21
2019-05-14T20:47:55.806Z,84.21
2019-05-14T20:50:28.958Z,84.83
2019-05-14T20:53:01.408Z,84.60
2019-05-14T20:55:32.924Z,84.37
2019-05-14T20:58:04.598Z,85.75
2019-05-14T21:00:35.898Z,86.05
2019-05-14T21:03:08.961Z,86.68
2019-05-14T21:05:42.484Z,86.69
2019-05-14T21:08:13.865Z,87.03
2019-05-14T21:10:45.255Z,87.64
2019-05-14T21:13:18.228Z,87.79
2019-05-14T21:15:49.899Z,86.76
2019-05-14T21:18:34.452Z,86.72
2019-05-14T21:20:54.498Z,86.48
2019-05-14T21:23:25.730Z,83.82
2019-05-14T21:25:58.944Z,84.47
2019-05-14T21:28:30.242Z,85.81
2019-05-14T21:31:01.523Z,84.07
2019-05-14T21:33:32.930Z,86.09
2019-05-14T21:36:04.255Z,87.36
2019-05-14T21:38:35.456Z,88.73
2019-05-14T21:41:06.639Z,89.46
2019-05-14T21:43:38.512Z,89.99
2019-05-14T21:46:09.887Z,90.28
2019-05-14T21:48:41.275Z,89.49
2019-05-14T21:51:13.494Z,90.60
2019-05-14T21:53:44.742Z,90.68
2019-05-14T21:56:18.542Z,90.27
2019-05-14T21:58:49.318Z,90.26
2019-05-14T22:01:21.275Z,89.19
2019-05-14T22:03:54.449Z,89.36
2019-05-14T22:06:25.798Z,89.47
2019-05-14T22:08:59.141Z,89.41
2019-05-14T22:11:30.126Z,89.19
2019-05-14T22:14:01.406Z,91.19
2019-05-14T22:16:32.920Z,91.75
2019-05-14T22:19:04.087Z,92.14
2019-05-14T22:21:35.512Z,92.20
2019-05-14T22:24:06.898Z,91.94
2019-05-14T22:26:39.211Z,92.75
2019-05-14T22:29:13.509Z,93.71
2019-05-14T22:31:44.840Z,94.64
2019-05-14T22:34:18.420Z,93.98
2019-05-14T22:36:49.466Z,94.60
2019-05-14T22:39:20.871Z,96.25
2019-05-14T22:41:52.060Z,97.04
2019-05-14T22:44:23.308Z,97.61
2019-05-14T22:47:59.979Z,98.54
2019-05-14T22:50:31.592Z,99.51
2019-05-14T22:53:02.896Z,100.00
2019-05-14T22:55:34.275Z,100.00
2019-05-14T22:58:05.442Z,100.00
2019-05-14T23:00:44.669Z,100.00
2019-05-14T23:03:09.550Z,100.00
2019-05-14T23:05:40.788Z,100.00
2019-05-14T23:08:12.090Z,100.00
2019-05-14T23:10:43.375Z,100.00
2019-05-14T23:13:14.690Z,100.00
2019-05-14T23:15:48.143Z,100.00
2019-05-14T23:18:19.622Z,100.00
2019-05-14T23:20:50.920Z,100.00
2019-05-14T23:23:22.407Z,100.00
2019-05-14T23:25:53.722Z,100.00
2019-05-14T23:28:38.834Z,100.00
2019-05-14T23:30:58.911Z,100.00
2019-05-14T23:33:30.193Z,100.00
2019-05-14T23:36:01.457Z,100.00
2019-05-14T23:38:32.923Z,100.00
2019-05-14T23:41:04.173Z,100.00
2019-05-14T23:43:35.637Z,100.00
2019-05-14T23:46:09.347Z,100.00
2019-05-14T23:48:41.013Z,100.00
2019-05-14T23:51:12.363Z,100.00
2019-05-14T23:53:43.590Z,100.00
2019-05-14T23:56:14.840Z,100.00
2019-05-14T23:58:54.811Z,100.00
